sensor_id;sensor_type;location;lat;lon;timestamp;temperature;humidity
44305;DHT22;30019;50.576;8.568;2023-08-01T00:02:24;16.30;99.90
44305;DHT22;30019;50.576;8.568;2023-08-01T00:04:49;16.40;99.90
44305;DHT22;30019;50.576;8.568;2023-08-01T00:07:14;16.40;99.90
44305;DHT22;30019;50.576;8.568;2023-08-01T00:09:40;16.40;99.90
44305;DHT22;30019;50.576;8.568;2023-08-01T00:12:05;16.40;99.90
44305;DHT22;30019;50.576;8.568;2023-08-01T00:14:31;16.40;99.90
44305;DHT22;30019;50.576;8.568;2023-08-01T00:16:56;16.40;99.90
44305;DHT22;30019;50.576;8.568;2023-08-01T00:19:22;16.40;99.90
44305;DHT22;30019;50.576;8.568;2023-08-01T00:21:47;16.40;99.90
44305;DHT22;30019;50.576;8.568;2023-08-01T00:24:13;16.50;99.90
44305;DHT22;30019;50.576;8.568;2023-08-01T00:26:38;16.40;99.90
44305;DHT22;30019;50.576;8.568;2023-08-01T00:29:04;16.40;99.90
44305;DHT22;30019;50.576;8.568;2023-08-01T00:31:29;16.40;99.90
44305;DHT22;30019;50.576;8.568;2023-08-01T00:33:54;16.40;99.90
44305;DHT22;30019;50.576;8.568;2023-08-01T00:36:20;16.40;99.90
44305;DHT22;30019;50.576;8.568;2023-08-01T00:38:45;16.40;99.90
44305;DHT22;30019;50.576;8.568;2023-08-01T00:41:11;16.40;99.90
44305;DHT22;30019;50.576;8.568;2023-08-01T00:43:36;16.40;99.90
44305;DHT22;30019;50.576;8.568;2023-08-01T00:46:03;16.40;99.90
44305;DHT22;30019;50.576;8.568;2023-08-01T00:48:29;16.40;99.90
44305;DHT22;30019;50.576;8.568;2023-08-01T00:50:55;16.40;99.90
44305;DHT22;30019;50.576;8.568;2023-08-01T00:53:21;16.40;99.90
44305;DHT22;30019;50.576;8.568;2023-08-01T00:55:47;16.40;99.90
44305;DHT22;30019;50.576;8.568;2023-08-01T00:58:13;16.40;99.90
44305;DHT22;30019;50.576;8.568;2023-08-01T01:00:38;16.50;99.90
44305;DHT22;30019;50.576;8.568;2023-08-01T01:03:04;16.40;99.90
44305;DHT22;30019;50.576;8.568;2023-08-01T01:05:35;16.30;99.90
44305;DHT22;30019;50.576;8.568;2023-08-01T01:08:02;16.40;99.90
44305;DHT22;30019;50.576;8.568;2023-08-01T01:10:27;16.40;99.90
44305;DHT22;30019;50.576;8.568;2023-08-01T01:12:53;16.40;99.90
44305;DHT22;30019;50.576;8.568;2023-08-01T01:15:18;16.40;99.90
44305;DHT22;30019;50.576;8.568;2023-08-01T01:17:44;16.40;99.90
44305;DHT22;30019;50.576;8.568;2023-08-01T01:20:09;16.30;99.90
44305;DHT22;30019;50.576;8.568;2023-08-01T01:22:35;16.40;99.90
44305;DHT22;30019;50.576;8.568;2023-08-01T01:25:01;16.30;99.90
44305;DHT22;30019;50.576;8.568;2023-08-01T01:27:27;16.40;99.90
44305;DHT22;30019;50.576;8.568;2023-08-01T01:29:53;16.40;99.90
44305;DHT22;30019;50.576;8.568;2023-08-01T01:32:20;16.40;99.90
44305;DHT22;30019;50.576;8.568;2023-08-01T01:34:45;16.40;99.90
44305;DHT22;30019;50.576;8.568;2023-08-01T01:37:11;16.40;99.90
44305;DHT22;30019;50.576;8.568;2023-08-01T01:39:36;16.40;99.90
44305;DHT22;30019;50.576;8.568;2023-08-01T01:42:02;16.40;99.90
44305;DHT22;30019;50.576;8.568;2023-08-01T01:44:27;16.40;99.90
44305;DHT22;30019;50.576;8.568;2023-08-01T01:46:53;16.40;99.90
44305;DHT22;30019;50.576;8.568;2023-08-01T01:49:18;16.30;99.90
44305;DHT22;30019;50.576;8.568;2023-08-01T01:51:44;16.40;99.90
44305;DHT22;30019;50.576;8.568;2023-08-01T01:54:09;16.40;99.90
44305;DHT22;30019;50.576;8.568;2023-08-01T01:56:35;16.30;99.90
44305;DHT22;30019;50.576;8.568;2023-08-01T01:59:01;16.30;99.90
44305;DHT22;30019;50.576;8.568;2023-08-01T02:01:26;16.30;99.90
44305;DHT22;30019;50.576;8.568;2023-08-01T02:03:52;16.20;99.90
44305;DHT22;30019;50.576;8.568;2023-08-01T02:06:17;16.30;99.90
44305;DHT22;30019;50.576;8.568;2023-08-01T02:08:43;16.30;99.90
44305;DHT22;30019;50.576;8.568;2023-08-01T02:11:08;16.30;99.90
44305;DHT22;30019;50.576;8.568;2023-08-01T02:13:34;16.30;99.90
44305;DHT22;30019;50.576;8.568;2023-08-01T02:15:59;16.30;99.90
44305;DHT22;30019;50.576;8.568;2023-08-01T02:18:25;16.40;99.90
44305;DHT22;30019;50.576;8.568;2023-08-01T02:20:50;16.40;99.90
44305;DHT22;30019;50.576;8.568;2023-08-01T02:23:15;16.30;99.90
44305;DHT22;30019;50.576;8.568;2023-08-01T02:25:41;16.40;99.90
44305;DHT22;30019;50.576;8.568;2023-08-01T02:28:07;16.40;99.90
44305;DHT22;30019;50.576;8.568;2023-08-01T02:30:33;16.40;99.90
44305;DHT22;30019;50.576;8.568;2023-08-01T02:32:59;16.40;99.90
44305;DHT22;30019;50.576;8.568;2023-08-01T02:35:24;16.30;99.90
44305;DHT22;30019;50.576;8.568;2023-08-01T02:37:50;16.40;99.90
44305;DHT22;30019;50.576;8.568;2023-08-01T02:40:15;16.40;99.90
44305;DHT22;30019;50.576;8.568;2023-08-01T02:42:41;16.50;99.90
44305;DHT22;30019;50.576;8.568;2023-08-01T02:45:06;16.50;99.90
44305;DHT22;30019;50.576;8.568;2023-08-01T02:47:32;16.50;99.90
44305;DHT22;30019;50.576;8.568;2023-08-01T02:49:57;16.50;99.90
44305;DHT22;30019;50.576;8.568;2023-08-01T02:52:23;16.40;99.90
44305;DHT22;30019;50.576;8.568;2023-08-01T02:54:48;16.40;99.90
44305;DHT22;30019;50.576;8.568;2023-08-01T02:57:14;16.40;99.90
44305;DHT22;30019;50.576;8.568;2023-08-01T02:59:39;16.40;99.90
44305;DHT22;30019;50.576;8.568;2023-08-01T03:02:04;16.40;99.90
44305;DHT22;30019;50.576;8.568;2023-08-01T03:04:30;16.30;99.90
44305;DHT22;30019;50.576;8.568;2023-08-01T03:06:55;16.40;99.90
44305;DHT22;30019;50.576;8.568;2023-08-01T03:09:21;16.30;99.90
44305;DHT22;30019;50.576;8.568;2023-08-01T03:11:46;16.40;99.90
44305;DHT22;30019;50.576;8.568;2023-08-01T03:14:12;16.50;99.90
44305;DHT22;30019;50.576;8.568;2023-08-01T03:16:37;16.50;99.90
44305;DHT22;30019;50.576;8.568;2023-08-01T03:19:03;16.60;99.90
44305;DHT22;30019;50.576;8.568;2023-08-01T03:21:33;16.60;99.90
44305;DHT22;30019;50.576;8.568;2023-08-01T03:23:59;16.70;99.90
44305;DHT22;30019;50.576;8.568;2023-08-01T03:26:24;16.70;99.90
44305;DHT22;30019;50.576;8.568;2023-08-01T03:28:50;16.70;99.90
44305;DHT22;30019;50.576;8.568;2023-08-01T03:31:15;16.60;99.90
44305;DHT22;30019;50.576;8.568;2023-08-01T03:33:41;16.60;99.90
44305;DHT22;30019;50.576;8.568;2023-08-01T03:36:06;16.60;99.90
44305;DHT22;30019;50.576;8.568;2023-08-01T03:38:32;16.60;99.90
44305;DHT22;30019;50.576;8.568;2023-08-01T03:40:57;16.60;99.90
44305;DHT22;30019;50.576;8.568;2023-08-01T03:43:23;16.60;99.90
44305;DHT22;30019;50.576;8.568;2023-08-01T03:45:49;16.70;99.90
44305;DHT22;30019;50.576;8.568;2023-08-01T03:48:15;16.70;99.90
44305;DHT22;30019;50.576;8.568;2023-08-01T03:50:40;16.60;99.90
44305;DHT22;30019;50.576;8.568;2023-08-01T03:53:05;16.70;99.90
44305;DHT22;30019;50.576;8.568;2023-08-01T03:55:32;16.60;99.90
44305;DHT22;30019;50.576;8.568;2023-08-01T03:57:58;16.60;99.90
44305;DHT22;30019;50.576;8.568;2023-08-01T04:00:23;16.70;99.90
44305;DHT22;30019;50.576;8.568;2023-08-01T04:02:49;16.70;99.90
44305;DHT22;30019;50.576;8.568;2023-08-01T04:05:14;16.70;99.90
44305;DHT22;30019;50.576;8.568;2023-08-01T04:07:40;16.70;99.90
44305;DHT22;30019;50.576;8.568;2023-08-01T04:10:06;16.70;99.90
44305;DHT22;30019;50.576;8.568;2023-08-01T04:12:32;16.70;99.90
44305;DHT22;30019;50.576;8.568;2023-08-01T04:14:57;16.70;99.90
44305;DHT22;30019;50.576;8.568;2023-08-01T04:17:23;16.70;99.90
44305;DHT22;30019;50.576;8.568;2023-08-01T04:19:48;16.70;99.90
44305;DHT22;30019;50.576;8.568;2023-08-01T04:22:14;16.70;99.90
44305;DHT22;30019;50.576;8.568;2023-08-01T04:24:39;16.70;99.90
44305;DHT22;30019;50.576;8.568;2023-08-01T04:27:05;16.70;99.90
44305;DHT22;30019;50.576;8.568;2023-08-01T04:29:30;16.70;99.90
44305;DHT22;30019;50.576;8.568;2023-08-01T04:31:56;16.80;99.90
44305;DHT22;30019;50.576;8.568;2023-08-01T04:34:22;16.70;99.90
44305;DHT22;30019;50.576;8.568;2023-08-01T04:36:47;16.70;99.90
44305;DHT22;30019;50.576;8.568;2023-08-01T04:39:12;16.70;99.90
44305;DHT22;30019;50.576;8.568;2023-08-01T04:41:38;16.70;99.90
44305;DHT22;30019;50.576;8.568;2023-08-01T04:44:03;16.80;99.90
44305;DHT22;30019;50.576;8.568;2023-08-01T04:46:29;16.70;99.90
44305;DHT22;30019;50.576;8.568;2023-08-01T04:48:54;16.70;99.90
44305;DHT22;30019;50.576;8.568;2023-08-01T04:51:20;16.70;99.90
44305;DHT22;30019;50.576;8.568;2023-08-01T04:53:45;16.60;99.90
44305;DHT22;30019;50.576;8.568;2023-08-01T04:56:11;16.60;99.90
44305;DHT22;30019;50.576;8.568;2023-08-01T04:58:36;16.70;99.90
44305;DHT22;30019;50.576;8.568;2023-08-01T05:01:01;16.60;99.90
44305;DHT22;30019;50.576;8.568;2023-08-01T05:03:27;16.60;99.90
44305;DHT22;30019;50.576;8.568;2023-08-01T05:05:52;16.70;99.90
44305;DHT22;30019;50.576;8.568;2023-08-01T05:08:18;16.60;99.90
44305;DHT22;30019;50.576;8.568;2023-08-01T05:10:43;16.60;99.90
44305;DHT22;30019;50.576;8.568;2023-08-01T05:13:09;16.60;99.90
44305;DHT22;30019;50.576;8.568;2023-08-01T05:15:34;16.60;99.90
44305;DHT22;30019;50.576;8.568;2023-08-01T05:18:00;16.60;99.90
44305;DHT22;30019;50.576;8.568;2023-08-01T05:20:25;16.60;99.90
44305;DHT22;30019;50.576;8.568;2023-08-01T05:22:58;16.60;99.90
44305;DHT22;30019;50.576;8.568;2023-08-01T05:25:24;16.70;99.90
44305;DHT22;30019;50.576;8.568;2023-08-01T05:27:50;16.60;99.90
44305;DHT22;30019;50.576;8.568;2023-08-01T05:30:15;16.60;99.90
44305;DHT22;30019;50.576;8.568;2023-08-01T05:32:41;16.50;99.90
44305;DHT22;30019;50.576;8.568;2023-08-01T05:35:09;16.40;99.90
44305;DHT22;30019;50.576;8.568;2023-08-01T05:37:34;16.30;99.90
44305;DHT22;30019;50.576;8.568;2023-08-01T05:40:00;16.20;99.90
44305;DHT22;30019;50.576;8.568;2023-08-01T05:42:25;16.20;99.90
44305;DHT22;30019;50.576;8.568;2023-08-01T05:44:51;16.10;99.90
44305;DHT22;30019;50.576;8.568;2023-08-01T05:47:16;16.10;99.90
44305;DHT22;30019;50.576;8.568;2023-08-01T05:49:42;16.00;99.90
44305;DHT22;30019;50.576;8.568;2023-08-01T05:52:07;16.10;99.90
44305;DHT22;30019;50.576;8.568;2023-08-01T05:54:33;16.10;99.90
44305;DHT22;30019;50.576;8.568;2023-08-01T05:56:58;16.10;99.90
44305;DHT22;30019;50.576;8.568;2023-08-01T05:59:23;16.00;99.90
44305;DHT22;30019;50.576;8.568;2023-08-01T06:01:49;16.00;99.90
44305;DHT22;30019;50.576;8.568;2023-08-01T06:04:15;16.00;99.90
44305;DHT22;30019;50.576;8.568;2023-08-01T06:06:40;16.00;99.90
44305;DHT22;30019;50.576;8.568;2023-08-01T06:09:06;16.00;99.90
44305;DHT22;30019;50.576;8.568;2023-08-01T06:11:31;16.00;99.90
44305;DHT22;30019;50.576;8.568;2023-08-01T06:13:58;15.90;99.90
44305;DHT22;30019;50.576;8.568;2023-08-01T06:16:24;16.00;99.90
44305;DHT22;30019;50.576;8.568;2023-08-01T06:18:49;16.00;99.90
44305;DHT22;30019;50.576;8.568;2023-08-01T06:21:15;16.00;99.90
44305;DHT22;30019;50.576;8.568;2023-08-01T06:23:40;16.00;99.90
44305;DHT22;30019;50.576;8.568;2023-08-01T06:26:06;16.00;99.90
44305;DHT22;30019;50.576;8.568;2023-08-01T06:28:31;15.90;99.90
44305;DHT22;30019;50.576;8.568;2023-08-01T06:30:57;15.90;99.90
44305;DHT22;30019;50.576;8.568;2023-08-01T06:33:22;16.00;99.90
44305;DHT22;30019;50.576;8.568;2023-08-01T06:35:47;16.00;99.90
44305;DHT22;30019;50.576;8.568;2023-08-01T06:38:13;16.00;99.90
44305;DHT22;30019;50.576;8.568;2023-08-01T06:40:38;15.90;99.90
44305;DHT22;30019;50.576;8.568;2023-08-01T06:43:04;15.90;99.90
44305;DHT22;30019;50.576;8.568;2023-08-01T06:45:29;15.90;99.90
44305;DHT22;30019;50.576;8.568;2023-08-01T06:47:55;15.90;99.90
44305;DHT22;30019;50.576;8.568;2023-08-01T06:50:20;15.80;99.90
44305;DHT22;30019;50.576;8.568;2023-08-01T06:52:46;15.90;99.90
44305;DHT22;30019;50.576;8.568;2023-08-01T06:55:11;15.90;99.90
44305;DHT22;30019;50.576;8.568;2023-08-01T06:57:37;15.90;99.90
44305;DHT22;30019;50.576;8.568;2023-08-01T07:00:02;15.90;99.90
44305;DHT22;30019;50.576;8.568;2023-08-01T07:02:28;16.00;99.90
44305;DHT22;30019;50.576;8.568;2023-08-01T07:04:54;16.00;99.90
44305;DHT22;30019;50.576;8.568;2023-08-01T07:07:19;16.10;99.90
44305;DHT22;30019;50.576;8.568;2023-08-01T07:09:45;16.10;99.90
44305;DHT22;30019;50.576;8.568;2023-08-01T07:12:10;16.20;99.90
44305;DHT22;30019;50.576;8.568;2023-08-01T07:14:35;16.20;99.90
44305;DHT22;30019;50.576;8.568;2023-08-01T07:17:01;16.30;99.90
44305;DHT22;30019;50.576;8.568;2023-08-01T07:19:26;16.40;99.90
44305;DHT22;30019;50.576;8.568;2023-08-01T07:21:52;16.40;99.90
44305;DHT22;30019;50.576;8.568;2023-08-01T07:24:17;16.50;99.90
44305;DHT22;30019;50.576;8.568;2023-08-01T07:26:44;16.50;99.90
44305;DHT22;30019;50.576;8.568;2023-08-01T07:29:09;16.50;99.90
44305;DHT22;30019;50.576;8.568;2023-08-01T07:31:36;16.50;99.90
44305;DHT22;30019;50.576;8.568;2023-08-01T07:34:02;16.50;99.90
44305;DHT22;30019;50.576;8.568;2023-08-01T07:36:27;16.50;99.90
44305;DHT22;30019;50.576;8.568;2023-08-01T07:38:53;16.40;99.90
44305;DHT22;30019;50.576;8.568;2023-08-01T07:41:19;16.30;99.90
44305;DHT22;30019;50.576;8.568;2023-08-01T07:43:44;16.20;99.90
44305;DHT22;30019;50.576;8.568;2023-08-01T07:46:10;16.10;99.90
44305;DHT22;30019;50.576;8.568;2023-08-01T07:48:37;16.10;99.90
44305;DHT22;30019;50.576;8.568;2023-08-01T07:51:02;16.30;99.90
44305;DHT22;30019;50.576;8.568;2023-08-01T07:53:30;16.60;99.90
44305;DHT22;30019;50.576;8.568;2023-08-01T07:55:55;16.80;99.90
44305;DHT22;30019;50.576;8.568;2023-08-01T07:58:21;16.90;99.90
44305;DHT22;30019;50.576;8.568;2023-08-01T08:00:47;16.90;99.90
44305;DHT22;30019;50.576;8.568;2023-08-01T08:03:13;17.00;99.90
44305;DHT22;30019;50.576;8.568;2023-08-01T08:05:39;17.00;99.90
44305;DHT22;30019;50.576;8.568;2023-08-01T08:08:05;17.00;99.90
44305;DHT22;30019;50.576;8.568;2023-08-01T08:10:31;17.20;99.90
44305;DHT22;30019;50.576;8.568;2023-08-01T08:12:56;17.20;99.90
44305;DHT22;30019;50.576;8.568;2023-08-01T08:15:22;17.50;99.90
44305;DHT22;30019;50.576;8.568;2023-08-01T08:17:49;17.80;99.90
44305;DHT22;30019;50.576;8.568;2023-08-01T08:20:14;17.90;99.90
44305;DHT22;30019;50.576;8.568;2023-08-01T08:22:40;17.70;99.90
44305;DHT22;30019;50.576;8.568;2023-08-01T08:25:05;17.60;99.90
44305;DHT22;30019;50.576;8.568;2023-08-01T08:27:31;17.60;99.90
44305;DHT22;30019;50.576;8.568;2023-08-01T08:29:56;17.70;99.90
44305;DHT22;30019;50.576;8.568;2023-08-01T08:32:22;17.70;99.90
44305;DHT22;30019;50.576;8.568;2023-08-01T08:34:47;17.90;99.90
44305;DHT22;30019;50.576;8.568;2023-08-01T08:37:13;18.00;99.90
44305;DHT22;30019;50.576;8.568;2023-08-01T08:39:38;18.20;99.90
44305;DHT22;30019;50.576;8.568;2023-08-01T08:42:04;18.30;99.90
44305;DHT22;30019;50.576;8.568;2023-08-01T08:44:30;18.20;99.90
44305;DHT22;30019;50.576;8.568;2023-08-01T08:47:02;18.30;99.90
44305;DHT22;30019;50.576;8.568;2023-08-01T08:49:29;18.40;99.90
44305;DHT22;30019;50.576;8.568;2023-08-01T08:51:55;18.50;99.90
44305;DHT22;30019;50.576;8.568;2023-08-01T08:54:20;18.60;99.90
44305;DHT22;30019;50.576;8.568;2023-08-01T08:56:46;19.00;99.90
44305;DHT22;30019;50.576;8.568;2023-08-01T08:59:11;19.10;99.90
44305;DHT22;30019;50.576;8.568;2023-08-01T09:01:38;19.10;99.90
44305;DHT22;30019;50.576;8.568;2023-08-01T09:04:03;19.20;99.90
44305;DHT22;30019;50.576;8.568;2023-08-01T09:06:32;19.50;99.90
44305;DHT22;30019;50.576;8.568;2023-08-01T09:09:09;20.40;99.90
44305;DHT22;30019;50.576;8.568;2023-08-01T09:11:45;20.10;99.90
44305;DHT22;30019;50.576;8.568;2023-08-01T09:14:11;19.60;99.90
44305;DHT22;30019;50.576;8.568;2023-08-01T09:16:36;19.40;99.90
44305;DHT22;30019;50.576;8.568;2023-08-01T09:19:02;19.50;99.90
44305;DHT22;30019;50.576;8.568;2023-08-01T09:21:31;19.20;99.90
44305;DHT22;30019;50.576;8.568;2023-08-01T09:23:58;18.80;99.90
44305;DHT22;30019;50.576;8.568;2023-08-01T09:26:32;18.60;99.90
44305;DHT22;30019;50.576;8.568;2023-08-01T09:28:58;18.50;99.90
44305;DHT22;30019;50.576;8.568;2023-08-01T09:31:27;18.10;99.90
44305;DHT22;30019;50.576;8.568;2023-08-01T09:33:53;17.70;99.90
44305;DHT22;30019;50.576;8.568;2023-08-01T09:36:22;17.60;99.90
44305;DHT22;30019;50.576;8.568;2023-08-01T09:38:48;17.60;99.90
44305;DHT22;30019;50.576;8.568;2023-08-01T09:41:17;17.50;99.90
44305;DHT22;30019;50.576;8.568;2023-08-01T09:43:44;17.50;99.90
44305;DHT22;30019;50.576;8.568;2023-08-01T09:46:11;17.40;99.90
44305;DHT22;30019;50.576;8.568;2023-08-01T09:48:36;17.50;99.90
44305;DHT22;30019;50.576;8.568;2023-08-01T09:51:12;17.60;99.90
44305;DHT22;30019;50.576;8.568;2023-08-01T09:53:47;17.80;99.90
44305;DHT22;30019;50.576;8.568;2023-08-01T09:56:18;18.30;99.90
44305;DHT22;30019;50.576;8.568;2023-08-01T09:58:43;19.00;99.90
44305;DHT22;30019;50.576;8.568;2023-08-01T10:01:10;19.30;99.90
44305;DHT22;30019;50.576;8.568;2023-08-01T10:03:36;19.10;99.90
44305;DHT22;30019;50.576;8.568;2023-08-01T10:06:01;18.60;99.90
44305;DHT22;30019;50.576;8.568;2023-08-01T10:08:28;18.40;99.90
44305;DHT22;30019;50.576;8.568;2023-08-01T10:10:54;18.00;99.90
44305;DHT22;30019;50.576;8.568;2023-08-01T10:13:23;17.70;99.90
44305;DHT22;30019;50.576;8.568;2023-08-01T10:15:49;17.60;99.90
44305;DHT22;30019;50.576;8.568;2023-08-01T10:18:15;17.60;99.90
44305;DHT22;30019;50.576;8.568;2023-08-01T10:20:41;17.70;99.90
44305;DHT22;30019;50.576;8.568;2023-08-01T10:23:07;17.80;99.90
44305;DHT22;30019;50.576;8.568;2023-08-01T10:25:32;17.70;99.90
44305;DHT22;30019;50.576;8.568;2023-08-01T10:27:59;18.00;99.90
44305;DHT22;30019;50.576;8.568;2023-08-01T10:30:27;18.30;99.90
44305;DHT22;30019;50.576;8.568;2023-08-01T10:32:56;18.30;99.90
44305;DHT22;30019;50.576;8.568;2023-08-01T10:35:38;18.50;99.90
44305;DHT22;30019;50.576;8.568;2023-08-01T10:38:07;18.80;99.90
44305;DHT22;30019;50.576;8.568;2023-08-01T10:40:33;19.00;99.90
44305;DHT22;30019;50.576;8.568;2023-08-01T10:42:59;19.10;99.90
44305;DHT22;30019;50.576;8.568;2023-08-01T10:45:25;18.90;99.90
44305;DHT22;30019;50.576;8.568;2023-08-01T10:47:52;18.50;99.90
44305;DHT22;30019;50.576;8.568;2023-08-01T10:50:18;17.80;99.90
44305;DHT22;30019;50.576;8.568;2023-08-01T10:52:44;17.40;99.90
44305;DHT22;30019;50.576;8.568;2023-08-01T10:55:10;17.00;99.90
44305;DHT22;30019;50.576;8.568;2023-08-01T10:57:36;16.90;99.90
44305;DHT22;30019;50.576;8.568;2023-08-01T11:00:02;17.30;99.90
44305;DHT22;30019;50.576;8.568;2023-08-01T11:02:30;17.50;99.90
44305;DHT22;30019;50.576;8.568;2023-08-01T11:04:59;17.60;99.90
44305;DHT22;30019;50.576;8.568;2023-08-01T11:07:24;17.60;99.90
44305;DHT22;30019;50.576;8.568;2023-08-01T11:10:01;17.70;99.90
44305;DHT22;30019;50.576;8.568;2023-08-01T11:12:27;18.10;99.90
44305;DHT22;30019;50.576;8.568;2023-08-01T11:14:52;18.70;99.90
44305;DHT22;30019;50.576;8.568;2023-08-01T11:17:23;19.20;99.90
44305;DHT22;30019;50.576;8.568;2023-08-01T11:19:50;19.40;99.90
44305;DHT22;30019;50.576;8.568;2023-08-01T11:22:15;19.20;99.90
44305;DHT22;30019;50.576;8.568;2023-08-01T11:24:41;19.00;99.90
44305;DHT22;30019;50.576;8.568;2023-08-01T11:27:14;18.60;99.90
44305;DHT22;30019;50.576;8.568;2023-08-01T11:29:40;18.30;99.90
44305;DHT22;30019;50.576;8.568;2023-08-01T11:32:06;17.90;99.90
44305;DHT22;30019;50.576;8.568;2023-08-01T11:34:38;18.20;99.90
44305;DHT22;30019;50.576;8.568;2023-08-01T11:37:04;18.80;99.90
44305;DHT22;30019;50.576;8.568;2023-08-01T11:39:30;19.30;99.90
44305;DHT22;30019;50.576;8.568;2023-08-01T11:41:56;19.50;99.90
44305;DHT22;30019;50.576;8.568;2023-08-01T11:44:24;19.60;99.90
44305;DHT22;30019;50.576;8.568;2023-08-01T11:46:50;19.40;99.90
44305;DHT22;30019;50.576;8.568;2023-08-01T11:49:15;19.10;99.90
44305;DHT22;30019;50.576;8.568;2023-08-01T11:51:41;18.80;99.90
44305;DHT22;30019;50.576;8.568;2023-08-01T11:54:07;18.80;99.90
44305;DHT22;30019;50.576;8.568;2023-08-01T11:56:33;18.80;99.90
44305;DHT22;30019;50.576;8.568;2023-08-01T11:58:59;18.70;99.90
44305;DHT22;30019;50.576;8.568;2023-08-01T12:01:25;18.90;99.90
44305;DHT22;30019;50.576;8.568;2023-08-01T12:03:51;19.30;99.90
44305;DHT22;30019;50.576;8.568;2023-08-01T12:06:17;19.70;99.90
44305;DHT22;30019;50.576;8.568;2023-08-01T12:08:44;19.90;99.90
44305;DHT22;30019;50.576;8.568;2023-08-01T12:11:23;19.90;99.90
44305;DHT22;30019;50.576;8.568;2023-08-01T12:14:07;19.90;99.90
44305;DHT22;30019;50.576;8.568;2023-08-01T12:16:36;19.50;99.90
44305;DHT22;30019;50.576;8.568;2023-08-01T12:19:02;19.30;99.90
44305;DHT22;30019;50.576;8.568;2023-08-01T12:21:28;19.10;99.90
44305;DHT22;30019;50.576;8.568;2023-08-01T12:23:54;18.90;99.90
44305;DHT22;30019;50.576;8.568;2023-08-01T12:26:19;18.90;99.90
44305;DHT22;30019;50.576;8.568;2023-08-01T12:28:45;19.00;99.90
44305;DHT22;30019;50.576;8.568;2023-08-01T12:31:10;19.20;99.90
44305;DHT22;30019;50.576;8.568;2023-08-01T12:33:35;19.50;99.90
44305;DHT22;30019;50.576;8.568;2023-08-01T12:36:02;19.80;99.90
44305;DHT22;30019;50.576;8.568;2023-08-01T12:38:28;19.90;99.90
44305;DHT22;30019;50.576;8.568;2023-08-01T12:40:53;20.40;99.90
44305;DHT22;30019;50.576;8.568;2023-08-01T12:43:18;20.50;99.90
44305;DHT22;30019;50.576;8.568;2023-08-01T12:45:44;20.70;99.90
44305;DHT22;30019;50.576;8.568;2023-08-01T12:48:11;20.80;99.90
44305;DHT22;30019;50.576;8.568;2023-08-01T12:50:36;21.00;99.90
44305;DHT22;30019;50.576;8.568;2023-08-01T12:53:02;21.30;99.90
44305;DHT22;30019;50.576;8.568;2023-08-01T12:55:27;21.50;99.90
44305;DHT22;30019;50.576;8.568;2023-08-01T12:57:53;21.30;99.90
44305;DHT22;30019;50.576;8.568;2023-08-01T13:00:18;21.50;99.90
44305;DHT22;30019;50.576;8.568;2023-08-01T13:02:44;21.30;99.90
44305;DHT22;30019;50.576;8.568;2023-08-01T13:05:09;21.30;99.90
44305;DHT22;30019;50.576;8.568;2023-08-01T13:07:35;21.70;99.90
44305;DHT22;30019;50.576;8.568;2023-08-01T13:10:01;21.60;99.90
44305;DHT22;30019;50.576;8.568;2023-08-01T13:12:27;21.30;99.90
44305;DHT22;30019;50.576;8.568;2023-08-01T13:14:52;21.00;99.90
44305;DHT22;30019;50.576;8.568;2023-08-01T13:17:18;20.90;99.90
44305;DHT22;30019;50.576;8.568;2023-08-01T13:19:44;20.80;99.90
44305;DHT22;30019;50.576;8.568;2023-08-01T13:22:10;20.50;99.90
44305;DHT22;30019;50.576;8.568;2023-08-01T13:24:35;19.50;99.90
44305;DHT22;30019;50.576;8.568;2023-08-01T13:27:01;18.30;99.90
44305;DHT22;30019;50.576;8.568;2023-08-01T13:29:26;17.60;99.90
44305;DHT22;30019;50.576;8.568;2023-08-01T13:31:52;17.00;99.90
44305;DHT22;30019;50.576;8.568;2023-08-01T13:34:17;16.80;99.90
44305;DHT22;30019;50.576;8.568;2023-08-01T13:36:43;16.70;99.90
44305;DHT22;30019;50.576;8.568;2023-08-01T13:39:08;16.60;99.90
44305;DHT22;30019;50.576;8.568;2023-08-01T13:41:34;16.70;99.90
44305;DHT22;30019;50.576;8.568;2023-08-01T13:43:59;16.90;99.90
44305;DHT22;30019;50.576;8.568;2023-08-01T13:46:25;17.00;99.90
44305;DHT22;30019;50.576;8.568;2023-08-01T13:48:50;17.10;99.90
44305;DHT22;30019;50.576;8.568;2023-08-01T13:51:16;17.40;99.90
44305;DHT22;30019;50.576;8.568;2023-08-01T13:53:42;17.60;99.90
44305;DHT22;30019;50.576;8.568;2023-08-01T13:56:08;17.90;99.90
44305;DHT22;30019;50.576;8.568;2023-08-01T13:58:34;18.40;99.90
44305;DHT22;30019;50.576;8.568;2023-08-01T14:01:04;18.70;99.90
44305;DHT22;30019;50.576;8.568;2023-08-01T14:03:33;19.00;99.90
44305;DHT22;30019;50.576;8.568;2023-08-01T14:06:08;19.20;99.90
44305;DHT22;30019;50.576;8.568;2023-08-01T14:08:34;19.30;99.90
44305;DHT22;30019;50.576;8.568;2023-08-01T14:11:01;19.40;99.90
44305;DHT22;30019;50.576;8.568;2023-08-01T14:13:26;19.50;99.90
44305;DHT22;30019;50.576;8.568;2023-08-01T14:15:52;19.60;99.90
44305;DHT22;30019;50.576;8.568;2023-08-01T14:18:17;19.70;99.90
44305;DHT22;30019;50.576;8.568;2023-08-01T14:20:43;19.50;99.90
44305;DHT22;30019;50.576;8.568;2023-08-01T14:23:08;19.10;99.90
44305;DHT22;30019;50.576;8.568;2023-08-01T14:25:34;19.10;99.90
44305;DHT22;30019;50.576;8.568;2023-08-01T14:27:59;19.10;99.90
44305;DHT22;30019;50.576;8.568;2023-08-01T14:30:25;19.10;99.90
44305;DHT22;30019;50.576;8.568;2023-08-01T14:32:50;19.10;99.90
44305;DHT22;30019;50.576;8.568;2023-08-01T14:35:16;19.20;99.90
44305;DHT22;30019;50.576;8.568;2023-08-01T14:37:41;19.40;99.90
44305;DHT22;30019;50.576;8.568;2023-08-01T14:40:10;19.50;99.90
44305;DHT22;30019;50.576;8.568;2023-08-01T14:42:36;19.60;99.90
44305;DHT22;30019;50.576;8.568;2023-08-01T14:45:01;19.50;99.90
44305;DHT22;30019;50.576;8.568;2023-08-01T14:47:27;19.50;99.90
44305;DHT22;30019;50.576;8.568;2023-08-01T14:49:52;19.50;99.90
44305;DHT22;30019;50.576;8.568;2023-08-01T14:52:17;19.60;99.90
44305;DHT22;30019;50.576;8.568;2023-08-01T14:54:43;19.80;99.90
44305;DHT22;30019;50.576;8.568;2023-08-01T14:57:08;20.20;99.90
44305;DHT22;30019;50.576;8.568;2023-08-01T14:59:34;20.30;99.90
44305;DHT22;30019;50.576;8.568;2023-08-01T15:01:59;20.30;99.90
44305;DHT22;30019;50.576;8.568;2023-08-01T15:04:25;20.00;99.90
44305;DHT22;30019;50.576;8.568;2023-08-01T15:06:51;19.90;99.90
44305;DHT22;30019;50.576;8.568;2023-08-01T15:09:17;20.10;99.90
44305;DHT22;30019;50.576;8.568;2023-08-01T15:11:42;20.10;99.90
44305;DHT22;30019;50.576;8.568;2023-08-01T15:14:08;20.40;99.90
44305;DHT22;30019;50.576;8.568;2023-08-01T15:16:33;20.40;99.90
44305;DHT22;30019;50.576;8.568;2023-08-01T15:18:59;20.50;99.90
44305;DHT22;30019;50.576;8.568;2023-08-01T15:21:24;20.50;99.90
44305;DHT22;30019;50.576;8.568;2023-08-01T15:23:52;20.30;99.90